sensor_id;sensor_type;location;lat;lon;timestamp;pressure;altitude;pressure_sealevel;temperature;humidity
7834;BME280;3962;42.696;23.354;2022-11-02T00:02:27;95885.44;;;11.22;82.07
7834;BME280;3962;42.696;23.354;2022-11-02T00:04:54;95889.78;;;11.23;81.50
7834;BME280;3962;42.696;23.354;2022-11-02T00:07:21;95886.13;;;11.24;81.72
7834;BME280;3962;42.696;23.354;2022-11-02T00:09:47;95889.34;;;11.18;81.07
7834;BME280;3962;42.696;23.354;2022-11-02T00:12:14;95886.50;;;11.10;81.38
7834;BME280;3962;42.696;23.354;2022-11-02T00:14:41;95886.38;;;11.11;81.87
7834;BME280;3962;42.696;23.354;2022-11-02T00:17:18;95882.69;;;11.03;82.32
7834;BME280;3962;42.696;23.354;2022-11-02T00:19:45;95877.66;;;11.00;82.32
7834;BME280;3962;42.696;23.354;2022-11-02T00:22:12;95889.56;;;11.05;82.52
7834;BME280;3962;42.696;23.354;2022-11-02T00:24:39;95886.63;;;11.08;82.69
7834;BME280;3962;42.696;23.354;2022-11-02T00:27:06;95886.50;;;11.10;81.86
7834;BME280;3962;42.696;23.354;2022-11-02T00:29:33;95886.78;;;11.07;81.85
7834;BME280;3962;42.696;23.354;2022-11-02T00:32:00;95885.06;;;10.96;82.08
7834;BME280;3962;42.696;23.354;2022-11-02T00:34:29;95881.53;;;10.87;82.28
7834;BME280;3962;42.696;23.354;2022-11-02T00:36:56;95880.09;;;10.82;82.23
7834;BME280;3962;42.696;23.354;2022-11-02T00:39:26;95883.28;;;10.77;82.74
7834;BME280;3962;42.696;23.354;2022-11-02T00:41:53;95870.16;;;10.75;82.47
7834;BME280;3962;42.696;23.354;2022-11-02T00:44:20;95881.72;;;10.65;82.76
7834;BME280;3962;42.696;23.354;2022-11-02T00:46:47;95875.38;;;10.56;82.59
7834;BME280;3962;42.696;23.354;2022-11-02T00:49:13;95875.88;;;10.50;83.33
7834;BME280;3962;42.696;23.354;2022-11-02T00:51:47;95875.34;;;10.47;83.49
7834;BME280;3962;42.696;23.354;2022-11-02T00:54:13;95877.59;;;10.51;83.28
7834;BME280;3962;42.696;23.354;2022-11-02T00:56:42;95870.72;;;10.49;83.44
7834;BME280;3962;42.696;23.354;2022-11-02T00:59:09;95882.19;;;10.49;83.06
7834;BME280;3962;42.696;23.354;2022-11-02T01:01:36;95872.81;;;10.45;83.21
7834;BME280;3962;42.696;23.354;2022-11-02T01:04:03;95879.34;;;10.41;83.11
7834;BME280;3962;42.696;23.354;2022-11-02T01:06:30;95874.41;;;10.37;83.40
7834;BME280;3962;42.696;23.354;2022-11-02T01:09:00;95877.47;;;10.32;83.52
7834;BME280;3962;42.696;23.354;2022-11-02T01:11:28;95879.72;;;10.27;83.58
7834;BME280;3962;42.696;23.354;2022-11-02T01:13:55;95877.16;;;10.26;83.80
7834;BME280;3962;42.696;23.354;2022-11-02T01:16:22;95876.13;;;10.17;83.94
7834;BME280;3962;42.696;23.354;2022-11-02T01:18:50;95876.53;;;10.13;84.89
7834;BME280;3962;42.696;23.354;2022-11-02T01:21:17;95871.34;;;10.11;84.79
7834;BME280;3962;42.696;23.354;2022-11-02T01:23:44;95871.38;;;10.21;85.08
7834;BME280;3962;42.696;23.354;2022-11-02T01:26:12;95869.47;;;10.23;84.87
7834;BME280;3962;42.696;23.354;2022-11-02T01:28:40;95866.41;;;10.27;84.66
7834;BME280;3962;42.696;23.354;2022-11-02T01:31:08;95871.63;;;10.38;84.82
7834;BME280;3962;42.696;23.354;2022-11-02T01:33:35;95867.72;;;10.42;84.32
7834;BME280;3962;42.696;23.354;2022-11-02T01:36:04;95873.91;;;10.43;83.71
7834;BME280;3962;42.696;23.354;2022-11-02T01:38:31;95867.34;;;10.47;83.53
7834;BME280;3962;42.696;23.354;2022-11-02T01:40:59;95871.56;;;10.49;83.49
7834;BME280;3962;42.696;23.354;2022-11-02T01:43:28;95859.09;;;10.50;82.94
7834;BME280;3962;42.696;23.354;2022-11-02T01:46:00;95858.75;;;10.34;83.66
7834;BME280;3962;42.696;23.354;2022-11-02T01:48:31;95855.03;;;10.25;83.81
7834;BME280;3962;42.696;23.354;2022-11-02T01:51:02;95859.03;;;10.31;84.06
7834;BME280;3962;42.696;23.354;2022-11-02T01:53:32;95855.38;;;10.32;83.88
7834;BME280;3962;42.696;23.354;2022-11-02T01:56:01;95858.75;;;10.34;83.39
7834;BME280;3962;42.696;23.354;2022-11-02T01:58:29;95854.97;;;10.36;83.35
7834;BME280;3962;42.696;23.354;2022-11-02T02:00:59;95854.66;;;10.30;83.30
7834;BME280;3962;42.696;23.354;2022-11-02T02:03:28;95846.34;;;10.23;83.07
7834;BME280;3962;42.696;23.354;2022-11-02T02:06:00;95848.97;;;10.14;82.75
7834;BME280;3962;42.696;23.354;2022-11-02T02:08:31;95852.75;;;10.00;83.30
7834;BME280;3962;42.696;23.354;2022-11-02T02:10:59;95850.22;;;9.99;84.14
7834;BME280;3962;42.696;23.354;2022-11-02T02:13:26;95850.03;;;9.91;84.05
7834;BME280;3962;42.696;23.354;2022-11-02T02:16:01;95847.53;;;9.89;84.80
7834;BME280;3962;42.696;23.354;2022-11-02T02:18:37;95840.53;;;9.88;84.63
7834;BME280;3962;42.696;23.354;2022-11-02T02:21:18;95845.09;;;9.86;84.55
7834;BME280;3962;42.696;23.354;2022-11-02T02:24:19;95841.06;;;9.71;84.45
7834;BME280;3962;42.696;23.354;2022-11-02T02:27:00;95846.47;;;9.60;84.66
7834;BME280;3962;42.696;23.354;2022-11-02T02:29:38;95855.56;;;9.47;84.97
7834;BME280;3962;42.696;23.354;2022-11-02T02:32:15;95842.00;;;9.29;85.49
7834;BME280;3962;42.696;23.354;2022-11-02T02:34:50;95843.22;;;9.25;85.56
7834;BME280;3962;42.696;23.354;2022-11-02T02:37:24;95844.56;;;9.20;85.94
7834;BME280;3962;42.696;23.354;2022-11-02T02:39:57;95844.94;;;9.15;86.05
7834;BME280;3962;42.696;23.354;2022-11-02T02:42:31;95850.63;;;9.11;86.21
7834;BME280;3962;42.696;23.354;2022-11-02T02:45:06;95851.69;;;9.08;86.23
7834;BME280;3962;42.696;23.354;2022-11-02T02:47:34;95849.41;;;9.04;85.95
7834;BME280;3962;42.696;23.354;2022-11-02T02:50:10;95851.38;;;9.02;86.11
7834;BME280;3962;42.696;23.354;2022-11-02T02:52:41;95838.47;;;8.97;86.50
7834;BME280;3962;42.696;23.354;2022-11-02T02:55:16;95841.47;;;9.04;86.38
7834;BME280;3962;42.696;23.354;2022-11-02T02:57:48;95845.84;;;9.05;86.18
7834;BME280;3962;42.696;23.354;2022-11-02T03:00:17;95842.31;;;9.04;86.28
7834;BME280;3962;42.696;23.354;2022-11-02T03:02:46;95840.75;;;9.02;86.52
7834;BME280;3962;42.696;23.354;2022-11-02T03:05:27;95846.31;;;8.99;86.10
7834;BME280;3962;42.696;23.354;2022-11-02T03:07:58;95843.66;;;8.99;86.03
7834;BME280;3962;42.696;23.354;2022-11-02T03:10:30;95845.94;;;8.92;86.74
7834;BME280;3962;42.696;23.354;2022-11-02T03:13:08;95846.31;;;8.99;86.49
7834;BME280;3962;42.696;23.354;2022-11-02T03:15:40;95855.97;;;9.00;86.45
7834;BME280;3962;42.696;23.354;2022-11-02T03:18:16;95852.44;;;8.99;86.66
7834;BME280;3962;42.696;23.354;2022-11-02T03:20:52;95851.84;;;9.07;87.16
7834;BME280;3962;42.696;23.354;2022-11-02T03:23:25;95854.50;;;9.07;86.62
7834;BME280;3962;42.696;23.354;2022-11-02T03:25:59;95853.03;;;9.14;87.03
7834;BME280;3962;42.696;23.354;2022-11-02T03:28:39;95849.53;;;9.13;86.32
7834;BME280;3962;42.696;23.354;2022-11-02T03:31:16;95857.00;;;9.19;86.12
7834;BME280;3962;42.696;23.354;2022-11-02T03:33:51;95854.47;;;9.18;86.01
7834;BME280;3962;42.696;23.354;2022-11-02T03:36:26;95863.88;;;9.11;85.72
7834;BME280;3962;42.696;23.354;2022-11-02T03:39:00;95861.88;;;9.03;85.66
7834;BME280;3962;42.696;23.354;2022-11-02T03:41:31;95854.28;;;8.99;85.27
7834;BME280;3962;42.696;23.354;2022-11-02T03:44:05;95855.25;;;8.87;85.27
7834;BME280;3962;42.696;23.354;2022-11-02T03:46:36;95851.06;;;8.73;85.56
7834;BME280;3962;42.696;23.354;2022-11-02T03:49:05;95856.63;;;8.70;85.70
7834;BME280;3962;42.696;23.354;2022-11-02T03:51:35;95855.41;;;8.63;85.19
7834;BME280;3962;42.696;23.354;2022-11-02T03:54:07;95847.69;;;8.60;85.89
7834;BME280;3962;42.696;23.354;2022-11-02T03:56:36;95851.56;;;8.56;85.90
7834;BME280;3962;42.696;23.354;2022-11-02T03:59:05;95844.81;;;8.52;85.62
7834;BME280;3962;42.696;23.354;2022-11-02T04:01:39;95845.66;;;8.53;86.02
7834;BME280;3962;42.696;23.354;2022-11-02T04:04:08;95853.34;;;8.56;85.81
7834;BME280;3962;42.696;23.354;2022-11-02T04:06:36;95842.16;;;8.52;85.26
7834;BME280;3962;42.696;23.354;2022-11-02T04:09:04;95842.66;;;8.46;84.68
7834;BME280;3962;42.696;23.354;2022-11-02T04:11:31;95839.84;;;8.48;84.44
7834;BME280;3962;42.696;23.354;2022-11-02T04:14:15;95853.25;;;8.46;84.59
7834;BME280;3962;42.696;23.354;2022-11-02T04:17:01;95851.91;;;8.41;84.88
7834;BME280;3962;42.696;23.354;2022-11-02T04:19:45;95837.94;;;8.39;84.79
7834;BME280;3962;42.696;23.354;2022-11-02T04:22:12;95846.25;;;8.56;85.59
7834;BME280;3962;42.696;23.354;2022-11-02T04:24:56;95850.13;;;8.63;84.75
7834;BME280;3962;42.696;23.354;2022-11-02T04:27:43;95853.13;;;8.59;84.98
7834;BME280;3962;42.696;23.354;2022-11-02T04:30:11;95847.53;;;8.73;84.63
7834;BME280;3962;42.696;23.354;2022-11-02T04:32:42;95850.34;;;8.71;83.94
7834;BME280;3962;42.696;23.354;2022-11-02T04:35:28;95853.59;;;8.64;83.91
7834;BME280;3962;42.696;23.354;2022-11-02T04:37:56;95849.97;;;8.65;83.65
7834;BME280;3962;42.696;23.354;2022-11-02T04:40:40;95853.72;;;8.73;84.04
7834;BME280;3962;42.696;23.354;2022-11-02T04:43:07;95853.22;;;8.79;83.96
7834;BME280;3962;42.696;23.354;2022-11-02T04:45:34;95849.25;;;8.74;83.55
7834;BME280;3962;42.696;23.354;2022-11-02T04:48:05;95855.75;;;8.81;83.97
7834;BME280;3962;42.696;23.354;2022-11-02T04:50:32;95851.19;;;8.83;84.28
7834;BME280;3962;42.696;23.354;2022-11-02T04:53:00;95859.00;;;8.84;85.04
7834;BME280;3962;42.696;23.354;2022-11-02T04:55:27;95856.81;;;8.89;85.23
7834;BME280;3962;42.696;23.354;2022-11-02T04:57:54;95846.81;;;8.93;84.97
7834;BME280;3962;42.696;23.354;2022-11-02T05:00:22;95860.34;;;8.90;84.51
7834;BME280;3962;42.696;23.354;2022-11-02T05:02:49;95857.75;;;8.99;84.29
7834;BME280;3962;42.696;23.354;2022-11-02T05:05:17;95855.38;;;8.96;84.07
7834;BME280;3962;42.696;23.354;2022-11-02T05:07:44;95861.75;;;8.94;84.12
7834;BME280;3962;42.696;23.354;2022-11-02T05:10:11;95866.47;;;8.90;84.75
7834;BME280;3962;42.696;23.354;2022-11-02T05:12:39;95860.34;;;8.90;84.92
7834;BME280;3962;42.696;23.354;2022-11-02T05:15:06;95860.44;;;8.88;84.68
7834;BME280;3962;42.696;23.354;2022-11-02T05:17:33;95857.09;;;8.86;85.09
7834;BME280;3962;42.696;23.354;2022-11-02T05:20:00;95863.09;;;8.88;85.01
7834;BME280;3962;42.696;23.354;2022-11-02T05:22:29;95869.13;;;8.90;85.17
7834;BME280;3962;42.696;23.354;2022-11-02T05:24:56;95874.91;;;8.95;85.54
7834;BME280;3962;42.696;23.354;2022-11-02T05:27:23;95882.03;;;8.95;85.41
7834;BME280;3962;42.696;23.354;2022-11-02T05:29:50;95883.69;;;8.96;85.21
7834;BME280;3962;42.696;23.354;2022-11-02T05:32:17;95880.97;;;8.86;85.22
7834;BME280;3962;42.696;23.354;2022-11-02T05:34:43;95896.50;;;8.80;84.63
7834;BME280;3962;42.696;23.354;2022-11-02T05:37:10;95890.63;;;8.65;84.94
7834;BME280;3962;42.696;23.354;2022-11-02T05:39:38;95897.84;;;8.63;85.82
7834;BME280;3962;42.696;23.354;2022-11-02T05:42:05;95891.09;;;8.70;86.08
7834;BME280;3962;42.696;23.354;2022-11-02T05:44:32;95894.84;;;8.90;84.97
7834;BME280;3962;42.696;23.354;2022-11-02T05:46:59;95898.19;;;8.92;85.04
7834;BME280;3962;42.696;23.354;2022-11-02T05:49:26;95900.97;;;8.90;84.00
7834;BME280;3962;42.696;23.354;2022-11-02T05:51:52;95917.16;;;8.87;84.06
7834;BME280;3962;42.696;23.354;2022-11-02T05:54:19;95916.28;;;8.87;84.39
7834;BME280;3962;42.696;23.354;2022-11-02T05:56:47;95916.28;;;8.87;84.52
7834;BME280;3962;42.696;23.354;2022-11-02T05:59:14;95905.56;;;8.88;84.57
7834;BME280;3962;42.696;23.354;2022-11-02T06:01:41;95909.53;;;8.94;84.35
7834;BME280;3962;42.696;23.354;2022-11-02T06:04:08;95911.22;;;8.95;83.97
7834;BME280;3962;42.696;23.354;2022-11-02T06:06:35;95921.97;;;8.93;83.97
7834;BME280;3962;42.696;23.354;2022-11-02T06:09:01;95911.47;;;8.92;84.06
7834;BME280;3962;42.696;23.354;2022-11-02T06:11:28;95919.66;;;9.00;83.99
7834;BME280;3962;42.696;23.354;2022-11-02T06:13:56;95918.56;;;9.02;84.13
7834;BME280;3962;42.696;23.354;2022-11-02T06:16:23;95916.75;;;9.14;84.00
7834;BME280;3962;42.696;23.354;2022-11-02T06:18:50;95923.13;;;9.22;83.54
7834;BME280;3962;42.696;23.354;2022-11-02T06:21:17;95924.19;;;9.31;83.21
7834;BME280;3962;42.696;23.354;2022-11-02T06:23:45;95927.19;;;9.37;83.22
7834;BME280;3962;42.696;23.354;2022-11-02T06:26:12;95925.09;;;9.52;82.69
7834;BME280;3962;42.696;23.354;2022-11-02T06:28:39;95932.31;;;9.61;82.48
7834;BME280;3962;42.696;23.354;2022-11-02T06:31:07;95931.78;;;9.67;82.31
7834;BME280;3962;42.696;23.354;2022-11-02T06:33:34;95926.31;;;9.79;81.79
7834;BME280;3962;42.696;23.354;2022-11-02T06:36:01;95930.16;;;9.86;81.25
7834;BME280;3962;42.696;23.354;2022-11-02T06:38:28;95926.16;;;9.92;81.00
7834;BME280;3962;42.696;23.354;2022-11-02T06:40:55;95930.72;;;10.01;80.98
7834;BME280;3962;42.696;23.354;2022-11-02T06:43:23;95928.59;;;10.15;81.05
7834;BME280;3962;42.696;23.354;2022-11-02T06:45:53;95933.13;;;10.24;79.88
7834;BME280;3962;42.696;23.354;2022-11-02T06:48:21;95930.44;;;10.35;79.69
7834;BME280;3962;42.696;23.354;2022-11-02T06:50:48;95930.47;;;10.45;79.46
7834;BME280;3962;42.696;23.354;2022-11-02T06:53:15;95930.53;;;10.54;79.14
7834;BME280;3962;42.696;23.354;2022-11-02T06:55:42;95927.47;;;10.59;78.64
7834;BME280;3962;42.696;23.354;2022-11-02T06:58:10;95918.56;;;10.69;78.14
7834;BME280;3962;42.696;23.354;2022-11-02T07:00:36;95924.09;;;10.77;78.02
7834;BME280;3962;42.696;23.354;2022-11-02T07:03:05;95925.25;;;10.84;77.99
7834;BME280;3962;42.696;23.354;2022-11-02T07:05:33;95920.91;;;10.92;77.30
7834;BME280;3962;42.696;23.354;2022-11-02T07:08:00;95916.50;;;11.02;77.07
7834;BME280;3962;42.696;23.354;2022-11-02T07:10:27;95920.69;;;11.05;76.29
7834;BME280;3962;42.696;23.354;2022-11-02T07:12:55;95919.16;;;11.12;76.30
7834;BME280;3962;42.696;23.354;2022-11-02T07:15:24;95915.53;;;11.13;75.99
7834;BME280;3962;42.696;23.354;2022-11-02T07:17:51;95920.59;;;11.16;75.75
7834;BME280;3962;42.696;23.354;2022-11-02T07:20:19;95927.91;;;11.23;75.57
7834;BME280;3962;42.696;23.354;2022-11-02T07:22:52;95917.00;;;11.36;74.92
7834;BME280;3962;42.696;23.354;2022-11-02T07:25:19;95910.72;;;11.46;74.31
7834;BME280;3962;42.696;23.354;2022-11-02T07:27:46;95921.13;;;11.59;73.98
7834;BME280;3962;42.696;23.354;2022-11-02T07:30:13;95914.16;;;11.67;73.67
7834;BME280;3962;42.696;23.354;2022-11-02T07:32:40;95911.63;;;11.75;73.75
7834;BME280;3962;42.696;23.354;2022-11-02T07:35:08;95910.38;;;11.89;73.77
7834;BME280;3962;42.696;23.354;2022-11-02T07:37:37;95914.59;;;12.01;73.30
7834;BME280;3962;42.696;23.354;2022-11-02T07:40:07;95913.31;;;12.05;73.53
7834;BME280;3962;42.696;23.354;2022-11-02T07:42:34;95910.91;;;12.21;73.00
7834;BME280;3962;42.696;23.354;2022-11-02T07:45:01;95911.47;;;12.34;71.89
7834;BME280;3962;42.696;23.354;2022-11-02T07:47:28;95911.31;;;12.45;71.97
7834;BME280;3962;42.696;23.354;2022-11-02T07:49:55;95905.53;;;12.59;71.39
7834;BME280;3962;42.696;23.354;2022-11-02T07:52:24;95913.75;;;12.75;71.46
7834;BME280;3962;42.696;23.354;2022-11-02T07:54:51;95899.22;;;12.96;70.51
7834;BME280;3962;42.696;23.354;2022-11-02T07:57:19;95900.00;;;13.16;70.23
7834;BME280;3962;42.696;23.354;2022-11-02T07:59:46;95895.84;;;13.31;69.45
7834;BME280;3962;42.696;23.354;2022-11-02T08:02:13;95898.03;;;13.45;68.69
7834;BME280;3962;42.696;23.354;2022-11-02T08:04:39;95899.41;;;13.66;68.73
7834;BME280;3962;42.696;23.354;2022-11-02T08:07:06;95896.59;;;14.80;66.20
7834;BME280;3962;42.696;23.354;2022-11-02T08:09:33;95886.34;;;16.00;62.97
7834;BME280;3962;42.696;23.354;2022-11-02T08:12:00;95889.97;;;17.35;57.62
7834;BME280;3962;42.696;23.354;2022-11-02T08:14:28;95892.75;;;18.64;53.87
7834;BME280;3962;42.696;23.354;2022-11-02T08:16:55;95882.75;;;19.23;51.81
7834;BME280;3962;42.696;23.354;2022-11-02T08:19:21;95890.66;;;19.68;50.39
7834;BME280;3962;42.696;23.354;2022-11-02T08:21:48;95883.97;;;20.00;48.89
7834;BME280;3962;42.696;23.354;2022-11-02T08:24:15;95883.91;;;19.93;48.77
7834;BME280;3962;42.696;23.354;2022-11-02T08:26:42;95879.09;;;19.89;48.98
7834;BME280;3962;42.696;23.354;2022-11-02T08:29:09;95880.69;;;19.83;48.93
7834;BME280;3962;42.696;23.354;2022-11-02T08:31:37;95874.59;;;19.96;48.77
7834;BME280;3962;42.696;23.354;2022-11-02T08:34:04;95871.44;;;19.92;47.97
7834;BME280;3962;42.696;23.354;2022-11-02T08:36:31;95869.94;;;19.90;48.31
7834;BME280;3962;42.696;23.354;2022-11-02T08:39:00;95870.91;;;19.82;48.74
7834;BME280;3962;42.696;23.354;2022-11-02T08:41:27;95868.19;;;20.32;47.96
7834;BME280;3962;42.696;23.354;2022-11-02T08:43:54;95870.16;;;20.45;47.04
7834;BME280;3962;42.696;23.354;2022-11-02T08:46:21;95866.34;;;20.60;46.52
7834;BME280;3962;42.696;23.354;2022-11-02T08:48:49;95865.53;;;20.60;46.79
7834;BME280;3962;42.696;23.354;2022-11-02T08:51:19;95866.63;;;20.65;46.84
7834;BME280;3962;42.696;23.354;2022-11-02T08:53:45;95854.81;;;20.73;46.12
7834;BME280;3962;42.696;23.354;2022-11-02T08:56:12;95870.22;;;20.51;46.48
7834;BME280;3962;42.696;23.354;2022-11-02T08:58:39;95854.59;;;20.26;47.29
7834;BME280;3962;42.696;23.354;2022-11-02T09:01:06;95852.16;;;20.31;46.90
7834;BME280;3962;42.696;23.354;2022-11-02T09:03:32;95852.88;;;20.88;46.11
7834;BME280;3962;42.696;23.354;2022-11-02T09:06:01;95848.00;;;20.98;45.91
7834;BME280;3962;42.696;23.354;2022-11-02T09:08:28;95844.16;;;21.20;45.05
7834;BME280;3962;42.696;23.354;2022-11-02T09:10:58;95845.22;;;20.91;45.68
7834;BME280;3962;42.696;23.354;2022-11-02T09:13:27;95849.72;;;20.36;46.90
7834;BME280;3962;42.696;23.354;2022-11-02T09:15:55;95847.06;;;20.63;46.28
7834;BME280;3962;42.696;23.354;2022-11-02T09:18:22;95843.59;;;20.48;46.40
7834;BME280;3962;42.696;23.354;2022-11-02T09:20:49;95832.91;;;20.19;47.28
7834;BME280;3962;42.696;23.354;2022-11-02T09:23:19;95835.91;;;20.10;47.57
7834;BME280;3962;42.696;23.354;2022-11-02T09:25:46;95831.50;;;19.88;47.97
7834;BME280;3962;42.696;23.354;2022-11-02T09:28:13;95832.97;;;20.05;47.73
7834;BME280;3962;42.696;23.354;2022-11-02T09:30:41;95828.34;;;20.20;47.46
7834;BME280;3962;42.696;23.354;2022-11-02T09:33:08;95822.72;;;20.42;46.96
7834;BME280;3962;42.696;23.354;2022-11-02T09:35:37;95809.47;;;20.26;47.20
7834;BME280;3962;42.696;23.354;2022-11-02T09:38:05;95817.19;;;20.29;47.20
7834;BME280;3962;42.696;23.354;2022-11-02T09:40:38;95818.03;;;20.30;47.67
7834;BME280;3962;42.696;23.354;2022-11-02T09:43:14;95807.22;;;20.30;47.38
7834;BME280;3962;42.696;23.354;2022-11-02T09:45:54;95794.00;;;20.14;47.33
7834;BME280;3962;42.696;23.354;2022-11-02T09:48:26;95802.94;;;20.00;47.58
7834;BME280;3962;42.696;23.354;2022-11-02T09:50:59;95790.19;;;20.08;47.96
7834;BME280;3962;42.696;23.354;2022-11-02T09:53:34;95790.66;;;20.12;47.65
7834;BME280;3962;42.696;23.354;2022-11-02T09:56:04;95792.13;;;20.14;47.69
7834;BME280;3962;42.696;23.354;2022-11-02T09:58:36;95785.75;;;20.22;47.17
7834;BME280;3962;42.696;23.354;2022-11-02T10:01:11;95779.94;;;20.46;47.19
7834;BME280;3962;42.696;23.354;2022-11-02T10:03:50;95776.16;;;20.68;46.90
7834;BME280;3962;42.696;23.354;2022-11-02T10:06:24;95771.34;;;20.63;46.35
7834;BME280;3962;42.696;23.354;2022-11-02T10:08:58;95761.34;;;20.64;46.28
7834;BME280;3962;42.696;23.354;2022-11-02T10:11:38;95765.66;;;20.86;46.00
7834;BME280;3962;42.696;23.354;2022-11-02T10:14:11;95760.97;;;20.94;45.51
7834;BME280;3962;42.696;23.354;2022-11-02T10:16:46;95757.88;;;20.97;45.96
7834;BME280;3962;42.696;23.354;2022-11-02T10:19:18;95755.56;;;20.94;46.20
7834;BME280;3962;42.696;23.354;2022-11-02T10:21:47;95742.38;;;20.85;46.42
7834;BME280;3962;42.696;23.354;2022-11-02T10:24:22;95751.53;;;20.84;46.36
7834;BME280;3962;42.696;23.354;2022-11-02T10:26:55;95744.81;;;20.80;46.43
7834;BME280;3962;42.696;23.354;2022-11-02T10:29:32;95744.03;;;20.86;46.31
7834;BME280;3962;42.696;23.354;2022-11-02T10:32:04;95742.31;;;21.06;45.85
7834;BME280;3962;42.696;23.354;2022-11-02T10:34:32;95732.38;;;21.13;45.91
7834;BME280;3962;42.696;23.354;2022-11-02T10:39:59;95733.28;;;21.33;45.31
7834;BME280;3962;42.696;23.354;2022-11-02T10:42:38;95719.59;;;21.47;45.07
7834;BME280;3962;42.696;23.354;2022-11-02T10:45:42;95719.00;;;21.52;44.97
7834;BME280;3962;42.696;23.354;2022-11-02T10:48:20;95713.78;;;21.57;44.76
7834;BME280;3962;42.696;23.354;2022-11-02T10:50:58;95709.28;;;21.70;44.87
7834;BME280;3962;42.696;23.354;2022-11-02T10:53:33;95703.88;;;21.90;44.45
7834;BME280;3962;42.696;23.354;2022-11-02T10:56:06;95703.72;;;22.04;44.05
7834;BME280;3962;42.696;23.354;2022-11-02T10:58:39;95702.03;;;22.16;43.95
7834;BME280;3962;42.696;23.354;2022-11-02T11:01:11;95695.19;;;22.20;43.44
7834;BME280;3962;42.696;23.354;2022-11-02T11:03:57;95686.81;;;22.22;43.49
7834;BME280;3962;42.696;23.354;2022-11-02T11:06:27;95687.47;;;22.30;43.11
7834;BME280;3962;42.696;23.354;2022-11-02T11:09:00;95678.31;;;22.44;42.88
7834;BME280;3962;42.696;23.354;2022-11-02T11:11:30;95684.34;;;22.53;42.96
7834;BME280;3962;42.696;23.354;2022-11-02T11:14:02;95686.00;;;22.60;42.64
7834;BME280;3962;42.696;23.354;2022-11-02T11:16:32;95679.50;;;22.68;42.00
7834;BME280;3962;42.696;23.354;2022-11-02T11:19:00;95677.41;;;22.76;41.92
7834;BME280;3962;42.696;23.354;2022-11-02T11:21:37;95667.81;;;22.80;41.62
7834;BME280;3962;42.696;23.354;2022-11-02T11:24:19;95664.00;;;22.94;41.63
7834;BME280;3962;42.696;23.354;2022-11-02T11:26:59;95662.09;;;23.01;41.19
7834;BME280;3962;42.696;23.354;2022-11-02T11:29:30;95656.47;;;22.96;41.67
7834;BME280;3962;42.696;23.354;2022-11-02T11:31:58;95646.25;;;22.98;41.83
7834;BME280;3962;42.696;23.354;2022-11-02T11:34:27;95651.06;;;22.96;42.37
7834;BME280;3962;42.696;23.354;2022-11-02T11:37:03;95637.25;;;23.04;40.80
7834;BME280;3962;42.696;23.354;2022-11-02T11:39:31;95639.50;;;23.20;40.39
7834;BME280;3962;42.696;23.354;2022-11-02T11:42:00;95630.78;;;23.49;38.19
7834;BME280;3962;42.696;23.354;2022-11-02T11:44:30;95633.41;;;23.68;38.89
7834;BME280;3962;42.696;23.354;2022-11-02T11:46:58;95624.78;;;23.71;38.88
7834;BME280;3962;42.696;23.354;2022-11-02T11:49:29;95622.44;;;23.81;36.90
7834;BME280;3962;42.696;23.354;2022-11-02T11:51:57;95624.72;;;23.84;36.89
7834;BME280;3962;42.696;23.354;2022-11-02T11:54:26;95610.31;;;23.84;37.93
7834;BME280;3962;42.696;23.354;2022-11-02T11:56:55;95612.13;;;23.96;34.50
7834;BME280;3962;42.696;23.354;2022-11-02T11:59:27;95603.31;;;24.01;33.70
7834;BME280;3962;42.696;23.354;2022-11-02T12:01:58;95605.22;;;24.18;34.01
7834;BME280;3962;42.696;23.354;2022-11-02T12:04:27;95610.47;;;24.38;33.50
7834;BME280;3962;42.696;23.354;2022-11-02T12:09:52;95596.28;;;24.54;31.42
7834;BME280;3962;42.696;23.354;2022-11-02T12:12:43;95592.72;;;24.60;32.60
7834;BME280;3962;42.696;23.354;2022-11-02T12:15:18;95598.41;;;24.52;32.65
7834;BME280;3962;42.696;23.354;2022-11-02T12:18:07;95599.00;;;24.60;32.31
7834;BME280;3962;42.696;23.354;2022-11-02T12:20:53;95587.81;;;24.68;32.89
7834;BME280;3962;42.696;23.354;2022-11-02T12:23:44;95581.38;;;24.81;32.75
7834;BME280;3962;42.696;23.354;2022-11-02T12:26:23;95571.63;;;24.91;32.36
7834;BME280;3962;42.696;23.354;2022-11-02T12:29:01;95584.47;;;25.02;32.08
7834;BME280;3962;42.696;23.354;2022-11-02T12:31:35;95579.50;;;24.99;31.77
7834;BME280;3962;42.696;23.354;2022-11-02T12:34:26;95583.88;;;25.00;31.90
7834;BME280;3962;42.696;23.354;2022-11-02T12:37:05;95575.84;;;25.23;32.79
7834;BME280;3962;42.696;23.354;2022-11-02T12:39:43;95576.34;;;25.32;33.08
7834;BME280;3962;42.696;23.354;2022-11-02T12:42:24;95565.13;;;25.40;32.26
7834;BME280;3962;42.696;23.354;2022-11-02T12:45:03;95578.63;;;25.35;31.97
7834;BME280;3962;42.696;23.354;2022-11-02T12:47:43;95563.97;;;25.18;33.19
7834;BME280;3962;42.696;23.354;2022-11-02T12:50:20;95563.09;;;25.35;31.96
7834;BME280;3962;42.696;23.354;2022-11-02T12:53:14;95565.13;;;25.40;32.36
7834;BME280;3962;42.696;23.354;2022-11-02T12:55:48;95565.09;;;25.58;31.77
7834;BME280;3962;42.696;23.354;2022-11-02T12:58:19;95555.94;;;25.52;31.22
7834;BME280;3962;42.696;23.354;2022-11-02T13:00:50;95561.38;;;25.52;31.79
7834;BME280;3962;42.696;23.354;2022-11-02T13:03:28;95560.94;;;25.55;31.13
7834;BME280;3962;42.696;23.354;2022-11-02T13:06:03;95555.88;;;25.41;31.67
7834;BME280;3962;42.696;23.354;2022-11-02T13:08:35;95554.84;;;25.42;32.24
7834;BME280;3962;42.696;23.354;2022-11-02T13:11:08;95557.31;;;25.43;31.92
7834;BME280;3962;42.696;23.354;2022-11-02T13:13:41;95553.16;;;25.29;31.68
7834;BME280;3962;42.696;23.354;2022-11-02T13:16:10;95546.72;;;25.24;32.78
7834;BME280;3962;42.696;23.354;2022-11-02T13:18:42;95551.72;;;25.27;31.71
7834;BME280;3962;42.696;23.354;2022-11-02T13:21:14;95558.84;;;25.21;32.53
7834;BME280;3962;42.696;23.354;2022-11-02T13:23:43;95548.97;;;25.09;32.42
7834;BME280;3962;42.696;23.354;2022-11-02T13:26:14;95548.28;;;25.13;32.42
7834;BME280;3962;42.696;23.354;2022-11-02T13:28:49;95544.63;;;24.90;32.62
7834;BME280;3962;42.696;23.354;2022-11-02T13:31:22;95550.97;;;25.02;32.08
7834;BME280;3962;42.696;23.354;2022-11-02T13:33:55;95550.72;;;25.03;32.34
7834;BME280;3962;42.696;23.354;2022-11-02T13:36:27;95550.22;;;24.95;32.76
7834;BME280;3962;42.696;23.354;2022-11-02T13:38:57;95548.94;;;24.79;32.94
7834;BME280;3962;42.696;23.354;2022-11-02T13:44:53;95547.09;;;24.37;33.61